sensor_id;sensor_type;location;lat;lon;timestamp;P1;durP1;ratioP1;P2;durP2;ratioP2
17214;SDS011;8723;51.502;6.918;2022-09-20T00:00:23;13.65;;;4.65;;
17214;SDS011;8723;51.502;6.918;2022-09-20T00:02:51;10.68;;;4.90;;
17214;SDS011;8723;51.502;6.918;2022-09-20T00:05:18;9.32;;;4.28;;
17214;SDS011;8723;51.502;6.918;2022-09-20T00:07:47;9.10;;;4.00;;
17214;SDS011;8723;51.502;6.918;2022-09-20T00:10:14;7.93;;;3.60;;
17214;SDS011;8723;51.502;6.918;2022-09-20T00:12:42;7.63;;;3.33;;
17214;SDS011;8723;51.502;6.918;2022-09-20T00:15:09;8.45;;;3.70;;
17214;SDS011;8723;51.502;6.918;2022-09-20T00:17:37;10.25;;;3.58;;
17214;SDS011;8723;51.502;6.918;2022-09-20T00:20:04;7.78;;;3.35;;
17214;SDS011;8723;51.502;6.918;2022-09-20T00:22:32;8.32;;;3.42;;
17214;SDS011;8723;51.502;6.918;2022-09-20T00:25:01;7.22;;;3.25;;
17214;SDS011;8723;51.502;6.918;2022-09-20T00:27:28;7.97;;;3.70;;
17214;SDS011;8723;51.502;6.918;2022-09-20T00:29:57;10.05;;;3.70;;
17214;SDS011;8723;51.502;6.918;2022-09-20T00:32:24;8.07;;;3.60;;
17214;SDS011;8723;51.502;6.918;2022-09-20T00:34:51;10.55;;;3.85;;
17214;SDS011;8723;51.502;6.918;2022-09-20T00:37:35;9.43;;;4.10;;
17214;SDS011;8723;51.502;6.918;2022-09-20T00:40:05;10.85;;;4.18;;
17214;SDS011;8723;51.502;6.918;2022-09-20T00:42:33;8.63;;;3.95;;
17214;SDS011;8723;51.502;6.918;2022-09-20T00:45:00;8.50;;;3.60;;
17214;SDS011;8723;51.502;6.918;2022-09-20T00:47:36;9.35;;;3.72;;
17214;SDS011;8723;51.502;6.918;2022-09-20T00:50:07;8.55;;;4.00;;
17214;SDS011;8723;51.502;6.918;2022-09-20T00:52:40;7.05;;;3.80;;
17214;SDS011;8723;51.502;6.918;2022-09-20T00:55:10;8.30;;;3.72;;
17214;SDS011;8723;51.502;6.918;2022-09-20T00:57:37;8.23;;;4.18;;
17214;SDS011;8723;51.502;6.918;2022-09-20T01:00:06;9.73;;;4.10;;
17214;SDS011;8723;51.502;6.918;2022-09-20T01:02:34;8.30;;;4.18;;
17214;SDS011;8723;51.502;6.918;2022-09-20T01:05:03;7.88;;;3.83;;
17214;SDS011;8723;51.502;6.918;2022-09-20T01:07:31;8.93;;;4.22;;
17214;SDS011;8723;51.502;6.918;2022-09-20T01:09:59;9.20;;;4.20;;
17214;SDS011;8723;51.502;6.918;2022-09-20T01:12:29;8.65;;;4.13;;
17214;SDS011;8723;51.502;6.918;2022-09-20T01:14:58;7.18;;;3.88;;
17214;SDS011;8723;51.502;6.918;2022-09-20T01:17:27;9.55;;;4.05;;
17214;SDS011;8723;51.502;6.918;2022-09-20T01:19:59;8.88;;;4.32;;
17214;SDS011;8723;51.502;6.918;2022-09-20T01:22:32;7.93;;;4.47;;
17214;SDS011;8723;51.502;6.918;2022-09-20T01:25:03;8.95;;;4.30;;
17214;SDS011;8723;51.502;6.918;2022-09-20T01:27:43;9.38;;;4.20;;
17214;SDS011;8723;51.502;6.918;2022-09-20T01:30:12;10.88;;;4.82;;
17214;SDS011;8723;51.502;6.918;2022-09-20T01:32:43;9.40;;;4.65;;
17214;SDS011;8723;51.502;6.918;2022-09-20T01:35:11;8.43;;;4.60;;
17214;SDS011;8723;51.502;6.918;2022-09-20T01:37:44;6.82;;;4.78;;
17214;SDS011;8723;51.502;6.918;2022-09-20T01:40:15;9.05;;;4.93;;
17214;SDS011;8723;51.502;6.918;2022-09-20T01:42:47;9.75;;;5.15;;
17214;SDS011;8723;51.502;6.918;2022-09-20T01:45:19;9.48;;;4.97;;
17214;SDS011;8723;51.502;6.918;2022-09-20T01:47:49;11.38;;;5.45;;
17214;SDS011;8723;51.502;6.918;2022-09-20T01:50:20;8.57;;;4.80;;
17214;SDS011;8723;51.502;6.918;2022-09-20T01:52:59;8.73;;;4.50;;
17214;SDS011;8723;51.502;6.918;2022-09-20T01:55:42;8.43;;;4.32;;
17214;SDS011;8723;51.502;6.918;2022-09-20T01:58:24;8.85;;;4.65;;
17214;SDS011;8723;51.502;6.918;2022-09-20T02:01:05;9.27;;;4.70;;
17214;SDS011;8723;51.502;6.918;2022-09-20T02:09:13;9.32;;;5.10;;
17214;SDS011;8723;51.502;6.918;2022-09-20T02:11:45;8.50;;;5.20;;
17214;SDS011;8723;51.502;6.918;2022-09-20T02:14:34;10.68;;;5.32;;
17214;SDS011;8723;51.502;6.918;2022-09-20T02:17:07;8.02;;;5.20;;
17214;SDS011;8723;51.502;6.918;2022-09-20T02:19:53;7.40;;;5.15;;
17214;SDS011;8723;51.502;6.918;2022-09-20T02:25:19;11.93;;;5.68;;
17214;SDS011;8723;51.502;6.918;2022-09-20T02:27:52;11.20;;;5.70;;
17214;SDS011;8723;51.502;6.918;2022-09-20T02:30:28;8.70;;;5.32;;
17214;SDS011;8723;51.502;6.918;2022-09-20T02:33:12;10.48;;;5.25;;
17214;SDS011;8723;51.502;6.918;2022-09-20T02:35:46;11.77;;;5.97;;
17214;SDS011;8723;51.502;6.918;2022-09-20T02:38:21;10.55;;;6.00;;
17214;SDS011;8723;51.502;6.918;2022-09-20T02:40:55;10.10;;;6.38;;
17214;SDS011;8723;51.502;6.918;2022-09-20T02:43:29;11.35;;;6.55;;
17214;SDS011;8723;51.502;6.918;2022-09-20T02:46:02;9.98;;;5.57;;
17214;SDS011;8723;51.502;6.918;2022-09-20T02:48:33;8.75;;;5.38;;
17214;SDS011;8723;51.502;6.918;2022-09-20T02:51:04;9.43;;;5.05;;
17214;SDS011;8723;51.502;6.918;2022-09-20T02:53:35;9.27;;;5.05;;
17214;SDS011;8723;51.502;6.918;2022-09-20T02:56:06;11.40;;;5.18;;
17214;SDS011;8723;51.502;6.918;2022-09-20T02:58:37;10.02;;;5.03;;
17214;SDS011;8723;51.502;6.918;2022-09-20T03:01:12;8.93;;;4.78;;
17214;SDS011;8723;51.502;6.918;2022-09-20T03:03:44;9.15;;;4.55;;
17214;SDS011;8723;51.502;6.918;2022-09-20T03:06:15;9.57;;;4.85;;
17214;SDS011;8723;51.502;6.918;2022-09-20T03:08:49;8.35;;;4.18;;
17214;SDS011;8723;51.502;6.918;2022-09-20T03:11:21;6.13;;;4.40;;
17214;SDS011;8723;51.502;6.918;2022-09-20T03:13:58;8.48;;;4.63;;
17214;SDS011;8723;51.502;6.918;2022-09-20T03:16:33;8.93;;;4.93;;
17214;SDS011;8723;51.502;6.918;2022-09-20T03:19:07;7.80;;;5.50;;
17214;SDS011;8723;51.502;6.918;2022-09-20T03:21:41;8.95;;;5.32;;
17214;SDS011;8723;51.502;6.918;2022-09-20T03:24:13;7.38;;;5.00;;
17214;SDS011;8723;51.502;6.918;2022-09-20T03:26:45;8.18;;;5.20;;
17214;SDS011;8723;51.502;6.918;2022-09-20T03:29:19;9.23;;;5.68;;
17214;SDS011;8723;51.502;6.918;2022-09-20T03:32:00;9.30;;;5.30;;
17214;SDS011;8723;51.502;6.918;2022-09-20T03:34:34;10.38;;;5.70;;
17214;SDS011;8723;51.502;6.918;2022-09-20T03:37:06;8.67;;;5.40;;
17214;SDS011;8723;51.502;6.918;2022-09-20T03:42:23;8.63;;;4.75;;
17214;SDS011;8723;51.502;6.918;2022-09-20T03:47:45;8.95;;;5.63;;
17214;SDS011;8723;51.502;6.918;2022-09-20T03:50:22;8.45;;;5.38;;
17214;SDS011;8723;51.502;6.918;2022-09-20T03:52:56;10.13;;;5.45;;
17214;SDS011;8723;51.502;6.918;2022-09-20T03:58:15;12.60;;;6.07;;
17214;SDS011;8723;51.502;6.918;2022-09-20T04:00:53;14.60;;;6.60;;
17214;SDS011;8723;51.502;6.918;2022-09-20T04:03:25;10.70;;;7.03;;
17214;SDS011;8723;51.502;6.918;2022-09-20T04:05:58;11.63;;;7.40;;
17214;SDS011;8723;51.502;6.918;2022-09-20T04:08:34;11.80;;;7.82;;
17214;SDS011;8723;51.502;6.918;2022-09-20T04:11:07;11.05;;;7.57;;
17214;SDS011;8723;51.502;6.918;2022-09-20T04:13:41;12.13;;;7.90;;
17214;SDS011;8723;51.502;6.918;2022-09-20T04:16:19;12.05;;;7.60;;
17214;SDS011;8723;51.502;6.918;2022-09-20T04:18:51;13.93;;;8.10;;
17214;SDS011;8723;51.502;6.918;2022-09-20T04:21:22;12.40;;;8.10;;
17214;SDS011;8723;51.502;6.918;2022-09-20T04:23:53;14.38;;;8.23;;
17214;SDS011;8723;51.502;6.918;2022-09-20T04:26:23;13.93;;;7.95;;
17214;SDS011;8723;51.502;6.918;2022-09-20T04:28:52;11.10;;;7.13;;
17214;SDS011;8723;51.502;6.918;2022-09-20T04:31:24;12.35;;;7.53;;
17214;SDS011;8723;51.502;6.918;2022-09-20T04:33:57;15.63;;;8.10;;
17214;SDS011;8723;51.502;6.918;2022-09-20T04:36:34;16.70;;;8.10;;
17214;SDS011;8723;51.502;6.918;2022-09-20T04:39:10;12.90;;;7.05;;
17214;SDS011;8723;51.502;6.918;2022-09-20T04:41:48;12.37;;;7.27;;
17214;SDS011;8723;51.502;6.918;2022-09-20T04:44:33;14.10;;;7.82;;
17214;SDS011;8723;51.502;6.918;2022-09-20T04:53:05;12.82;;;7.45;;
17214;SDS011;8723;51.502;6.918;2022-09-20T04:55:47;13.20;;;7.38;;
17214;SDS011;8723;51.502;6.918;2022-09-20T04:58:28;12.10;;;7.60;;
17214;SDS011;8723;51.502;6.918;2022-09-20T05:06:40;15.65;;;7.63;;
17214;SDS011;8723;51.502;6.918;2022-09-20T05:12:10;12.77;;;6.93;;
17214;SDS011;8723;51.502;6.918;2022-09-20T05:14:50;12.83;;;6.93;;
17214;SDS011;8723;51.502;6.918;2022-09-20T05:17:29;10.07;;;6.70;;
17214;SDS011;8723;51.502;6.918;2022-09-20T05:25:37;13.07;;;7.18;;
17214;SDS011;8723;51.502;6.918;2022-09-20T05:28:09;9.83;;;6.90;;
17214;SDS011;8723;51.502;6.918;2022-09-20T05:30:38;13.63;;;7.00;;
17214;SDS011;8723;51.502;6.918;2022-09-20T05:33:10;12.43;;;6.80;;
17214;SDS011;8723;51.502;6.918;2022-09-20T05:35:41;12.87;;;7.27;;
17214;SDS011;8723;51.502;6.918;2022-09-20T05:38:10;13.75;;;7.63;;
17214;SDS011;8723;51.502;6.918;2022-09-20T05:40:45;13.55;;;6.60;;
17214;SDS011;8723;51.502;6.918;2022-09-20T05:43:21;10.98;;;6.97;;
17214;SDS011;8723;51.502;6.918;2022-09-20T05:45:57;14.90;;;7.88;;
17214;SDS011;8723;51.502;6.918;2022-09-20T05:48:30;15.98;;;7.22;;
17214;SDS011;8723;51.502;6.918;2022-09-20T05:51:05;13.85;;;6.95;;
17214;SDS011;8723;51.502;6.918;2022-09-20T05:53:49;13.43;;;7.05;;
17214;SDS011;8723;51.502;6.918;2022-09-20T05:56:21;10.65;;;6.35;;
17214;SDS011;8723;51.502;6.918;2022-09-20T05:58:56;11.77;;;7.38;;
17214;SDS011;8723;51.502;6.918;2022-09-20T06:01:29;10.68;;;6.10;;
17214;SDS011;8723;51.502;6.918;2022-09-20T06:03:59;10.38;;;6.78;;
17214;SDS011;8723;51.502;6.918;2022-09-20T06:06:37;12.95;;;6.97;;
17214;SDS011;8723;51.502;6.918;2022-09-20T06:09:14;12.35;;;6.95;;
17214;SDS011;8723;51.502;6.918;2022-09-20T06:11:47;13.50;;;7.35;;
17214;SDS011;8723;51.502;6.918;2022-09-20T06:14:24;11.70;;;7.10;;
17214;SDS011;8723;51.502;6.918;2022-09-20T06:16:54;12.93;;;7.80;;
17214;SDS011;8723;51.502;6.918;2022-09-20T06:19:26;12.40;;;7.88;;
17214;SDS011;8723;51.502;6.918;2022-09-20T06:21:57;11.15;;;7.70;;
17214;SDS011;8723;51.502;6.918;2022-09-20T06:24:31;15.70;;;8.35;;
17214;SDS011;8723;51.502;6.918;2022-09-20T06:27:03;12.73;;;7.90;;
17214;SDS011;8723;51.502;6.918;2022-09-20T06:29:34;11.15;;;7.50;;
17214;SDS011;8723;51.502;6.918;2022-09-20T06:32:04;13.98;;;7.70;;
17214;SDS011;8723;51.502;6.918;2022-09-20T06:34:32;12.27;;;7.72;;
17214;SDS011;8723;51.502;6.918;2022-09-20T06:37:03;13.45;;;7.78;;
17214;SDS011;8723;51.502;6.918;2022-09-20T06:39:54;11.32;;;6.65;;
17214;SDS011;8723;51.502;6.918;2022-09-20T06:42:41;8.90;;;5.93;;
17214;SDS011;8723;51.502;6.918;2022-09-20T06:45:10;13.65;;;8.13;;
17214;SDS011;8723;51.502;6.918;2022-09-20T06:47:38;8.50;;;5.07;;
17214;SDS011;8723;51.502;6.918;2022-09-20T06:50:06;11.63;;;7.38;;
17214;SDS011;8723;51.502;6.918;2022-09-20T06:52:33;10.17;;;6.40;;
17214;SDS011;8723;51.502;6.918;2022-09-20T06:55:00;7.38;;;4.30;;
17214;SDS011;8723;51.502;6.918;2022-09-20T06:57:33;6.43;;;4.53;;
17214;SDS011;8723;51.502;6.918;2022-09-20T07:00:02;8.90;;;5.95;;
17214;SDS011;8723;51.502;6.918;2022-09-20T07:02:31;4.30;;;3.15;;
17214;SDS011;8723;51.502;6.918;2022-09-20T07:04:58;8.80;;;4.80;;
17214;SDS011;8723;51.502;6.918;2022-09-20T07:07:25;10.25;;;5.88;;
17214;SDS011;8723;51.502;6.918;2022-09-20T07:09:52;9.77;;;5.07;;
17214;SDS011;8723;51.502;6.918;2022-09-20T07:12:19;8.50;;;5.25;;
17214;SDS011;8723;51.502;6.918;2022-09-20T07:14:46;6.25;;;4.25;;
17214;SDS011;8723;51.502;6.918;2022-09-20T07:17:14;9.33;;;5.53;;
17214;SDS011;8723;51.502;6.918;2022-09-20T07:19:43;5.38;;;3.50;;
17214;SDS011;8723;51.502;6.918;2022-09-20T07:22:11;8.20;;;4.95;;
17214;SDS011;8723;51.502;6.918;2022-09-20T07:24:38;8.50;;;4.88;;
17214;SDS011;8723;51.502;6.918;2022-09-20T07:27:06;9.37;;;5.30;;
17214;SDS011;8723;51.502;6.918;2022-09-20T07:29:33;4.25;;;2.67;;
17214;SDS011;8723;51.502;6.918;2022-09-20T07:32:01;9.85;;;4.40;;
17214;SDS011;8723;51.502;6.918;2022-09-20T07:34:28;8.10;;;4.47;;
17214;SDS011;8723;51.502;6.918;2022-09-20T07:36:57;5.93;;;3.83;;
17214;SDS011;8723;51.502;6.918;2022-09-20T07:39:25;4.88;;;3.42;;
17214;SDS011;8723;51.502;6.918;2022-09-20T07:41:52;7.45;;;4.82;;
17214;SDS011;8723;51.502;6.918;2022-09-20T07:44:19;5.75;;;3.30;;
17214;SDS011;8723;51.502;6.918;2022-09-20T07:46:48;4.68;;;2.78;;
17214;SDS011;8723;51.502;6.918;2022-09-20T07:49:16;3.25;;;2.35;;
17214;SDS011;8723;51.502;6.918;2022-09-20T07:51:43;7.28;;;3.90;;
17214;SDS011;8723;51.502;6.918;2022-09-20T07:54:12;3.40;;;2.70;;
17214;SDS011;8723;51.502;6.918;2022-09-20T07:56:39;4.35;;;2.75;;
17214;SDS011;8723;51.502;6.918;2022-09-20T07:59:06;7.78;;;3.42;;
17214;SDS011;8723;51.502;6.918;2022-09-20T08:01:35;6.95;;;3.10;;
17214;SDS011;8723;51.502;6.918;2022-09-20T08:04:03;5.43;;;3.27;;
17214;SDS011;8723;51.502;6.918;2022-09-20T08:06:30;6.70;;;2.77;;
17214;SDS011;8723;51.502;6.918;2022-09-20T08:08:58;10.20;;;3.83;;
17214;SDS011;8723;51.502;6.918;2022-09-20T08:11:26;5.55;;;3.00;;
17214;SDS011;8723;51.502;6.918;2022-09-20T08:13:55;5.75;;;2.35;;
17214;SDS011;8723;51.502;6.918;2022-09-20T08:16:23;7.20;;;3.80;;
17214;SDS011;8723;51.502;6.918;2022-09-20T08:18:52;6.30;;;3.30;;
17214;SDS011;8723;51.502;6.918;2022-09-20T08:21:21;7.90;;;4.00;;
17214;SDS011;8723;51.502;6.918;2022-09-20T08:23:48;8.43;;;3.20;;
17214;SDS011;8723;51.502;6.918;2022-09-20T08:26:17;2.93;;;2.30;;
17214;SDS011;8723;51.502;6.918;2022-09-20T08:28:46;4.15;;;2.50;;
17214;SDS011;8723;51.502;6.918;2022-09-20T08:31:15;4.23;;;2.50;;
17214;SDS011;8723;51.502;6.918;2022-09-20T08:33:43;7.43;;;3.63;;
17214;SDS011;8723;51.502;6.918;2022-09-20T08:36:11;3.80;;;2.75;;
17214;SDS011;8723;51.502;6.918;2022-09-20T08:38:39;4.15;;;2.03;;
17214;SDS011;8723;51.502;6.918;2022-09-20T08:41:09;6.13;;;3.60;;
17214;SDS011;8723;51.502;6.918;2022-09-20T08:43:37;10.77;;;4.15;;
17214;SDS011;8723;51.502;6.918;2022-09-20T08:46:08;4.03;;;2.55;;
17214;SDS011;8723;51.502;6.918;2022-09-20T08:48:36;6.50;;;3.40;;
17214;SDS011;8723;51.502;6.918;2022-09-20T08:51:03;6.00;;;2.90;;
17214;SDS011;8723;51.502;6.918;2022-09-20T08:53:32;3.85;;;2.30;;
17214;SDS011;8723;51.502;6.918;2022-09-20T08:56:00;6.90;;;3.10;;
17214;SDS011;8723;51.502;6.918;2022-09-20T08:58:29;6.18;;;2.88;;
17214;SDS011;8723;51.502;6.918;2022-09-20T09:00:56;5.75;;;2.83;;
17214;SDS011;8723;51.502;6.918;2022-09-20T09:03:25;5.95;;;2.58;;
17214;SDS011;8723;51.502;6.918;2022-09-20T09:05:53;5.87;;;2.07;;
17214;SDS011;8723;51.502;6.918;2022-09-20T09:08:23;3.35;;;1.90;;
17214;SDS011;8723;51.502;6.918;2022-09-20T09:10:51;5.85;;;2.05;;
17214;SDS011;8723;51.502;6.918;2022-09-20T09:13:20;5.15;;;2.10;;
17214;SDS011;8723;51.502;6.918;2022-09-20T09:15:50;5.32;;;2.30;;
17214;SDS011;8723;51.502;6.918;2022-09-20T09:18:18;4.65;;;2.17;;
17214;SDS011;8723;51.502;6.918;2022-09-20T09:20:47;4.95;;;2.15;;
17214;SDS011;8723;51.502;6.918;2022-09-20T09:23:20;5.40;;;2.33;;
17214;SDS011;8723;51.502;6.918;2022-09-20T09:25:50;3.75;;;1.88;;
17214;SDS011;8723;51.502;6.918;2022-09-20T09:28:19;6.03;;;2.37;;
17214;SDS011;8723;51.502;6.918;2022-09-20T09:30:48;6.03;;;2.50;;
17214;SDS011;8723;51.502;6.918;2022-09-20T09:33:22;4.50;;;1.73;;
17214;SDS011;8723;51.502;6.918;2022-09-20T09:35:55;4.40;;;2.08;;
17214;SDS011;8723;51.502;6.918;2022-09-20T09:38:24;4.78;;;1.75;;
17214;SDS011;8723;51.502;6.918;2022-09-20T09:40:52;5.43;;;1.87;;
17214;SDS011;8723;51.502;6.918;2022-09-20T09:43:21;4.93;;;1.70;;
17214;SDS011;8723;51.502;6.918;2022-09-20T09:45:51;6.72;;;2.17;;
17214;SDS011;8723;51.502;6.918;2022-09-20T09:48:19;4.70;;;1.30;;
17214;SDS011;8723;51.502;6.918;2022-09-20T09:50:46;5.10;;;1.90;;
17214;SDS011;8723;51.502;6.918;2022-09-20T09:53:15;4.38;;;1.77;;
17214;SDS011;8723;51.502;6.918;2022-09-20T09:55:48;3.78;;;1.20;;
17214;SDS011;8723;51.502;6.918;2022-09-20T09:58:20;4.75;;;1.42;;
17214;SDS011;8723;51.502;6.918;2022-09-20T10:00:51;4.97;;;1.50;;
17214;SDS011;8723;51.502;6.918;2022-09-20T10:03:25;5.63;;;1.70;;
17214;SDS011;8723;51.502;6.918;2022-09-20T10:06:01;4.88;;;1.23;;
17214;SDS011;8723;51.502;6.918;2022-09-20T10:08:32;4.03;;;1.52;;
17214;SDS011;8723;51.502;6.918;2022-09-20T10:11:06;1.95;;;1.20;;
17214;SDS011;8723;51.502;6.918;2022-09-20T10:13:37;4.20;;;1.47;;
17214;SDS011;8723;51.502;6.918;2022-09-20T10:16:11;3.45;;;1.40;;
17214;SDS011;8723;51.502;6.918;2022-09-20T10:18:44;5.85;;;1.80;;
17214;SDS011;8723;51.502;6.918;2022-09-20T10:21:17;3.58;;;1.63;;
17214;SDS011;8723;51.502;6.918;2022-09-20T10:23:50;4.22;;;1.30;;
17214;SDS011;8723;51.502;6.918;2022-09-20T10:26:32;4.50;;;1.60;;
17214;SDS011;8723;51.502;6.918;2022-09-20T10:29:06;3.30;;;1.70;;
17214;SDS011;8723;51.502;6.918;2022-09-20T10:31:39;3.25;;;1.25;;
17214;SDS011;8723;51.502;6.918;2022-09-20T10:34:15;4.20;;;1.83;;
17214;SDS011;8723;51.502;6.918;2022-09-20T10:36:46;3.53;;;1.70;;
17214;SDS011;8723;51.502;6.918;2022-09-20T10:39:17;4.85;;;1.70;;
17214;SDS011;8723;51.502;6.918;2022-09-20T10:41:48;4.50;;;1.67;;
17214;SDS011;8723;51.502;6.918;2022-09-20T10:44:38;2.63;;;1.58;;
17214;SDS011;8723;51.502;6.918;2022-09-20T10:47:11;3.70;;;1.50;;
17214;SDS011;8723;51.502;6.918;2022-09-20T10:49:40;2.90;;;1.45;;
17214;SDS011;8723;51.502;6.918;2022-09-20T10:52:12;4.18;;;1.70;;
17214;SDS011;8723;51.502;6.918;2022-09-20T10:54:45;3.38;;;1.27;;
17214;SDS011;8723;51.502;6.918;2022-09-20T10:57:22;3.33;;;1.52;;
17214;SDS011;8723;51.502;6.918;2022-09-20T10:59:53;3.97;;;1.50;;
17214;SDS011;8723;51.502;6.918;2022-09-20T11:02:35;3.00;;;0.90;;
17214;SDS011;8723;51.502;6.918;2022-09-20T11:07:50;3.30;;;1.30;;
17214;SDS011;8723;51.502;6.918;2022-09-20T11:10:20;3.92;;;1.60;;
17214;SDS011;8723;51.502;6.918;2022-09-20T11:12:50;3.28;;;1.35;;
17214;SDS011;8723;51.502;6.918;2022-09-20T11:15:18;3.90;;;1.40;;
17214;SDS011;8723;51.502;6.918;2022-09-20T11:17:48;3.05;;;1.50;;
17214;SDS011;8723;51.502;6.918;2022-09-20T11:20:19;3.33;;;1.30;;
17214;SDS011;8723;51.502;6.918;2022-09-20T11:22:48;1.80;;;1.00;;
17214;SDS011;8723;51.502;6.918;2022-09-20T11:25:19;4.00;;;1.42;;
17214;SDS011;8723;51.502;6.918;2022-09-20T11:27:50;2.92;;;1.08;;
17214;SDS011;8723;51.502;6.918;2022-09-20T11:30:20;4.20;;;1.10;;
17214;SDS011;8723;51.502;6.918;2022-09-20T11:32:48;3.15;;;1.20;;
17214;SDS011;8723;51.502;6.918;2022-09-20T11:35:20;2.73;;;1.30;;
17214;SDS011;8723;51.502;6.918;2022-09-20T11:37:50;2.95;;;1.10;;
17214;SDS011;8723;51.502;6.918;2022-09-20T11:40:23;2.72;;;0.90;;
17214;SDS011;8723;51.502;6.918;2022-09-20T11:42:53;2.58;;;0.93;;
17214;SDS011;8723;51.502;6.918;2022-09-20T11:45:22;2.92;;;1.10;;
17214;SDS011;8723;51.502;6.918;2022-09-20T11:47:50;3.35;;;0.90;;
17214;SDS011;8723;51.502;6.918;2022-09-20T11:53:07;2.45;;;1.00;;
17214;SDS011;8723;51.502;6.918;2022-09-20T11:55:39;4.95;;;1.40;;
17214;SDS011;8723;51.502;6.918;2022-09-20T11:58:10;2.83;;;1.00;;
17214;SDS011;8723;51.502;6.918;2022-09-20T12:00:40;3.45;;;1.30;;
17214;SDS011;8723;51.502;6.918;2022-09-20T12:03:19;3.47;;;1.17;;
17214;SDS011;8723;51.502;6.918;2022-09-20T12:05:53;2.78;;;0.90;;
17214;SDS011;8723;51.502;6.918;2022-09-20T12:08:23;1.90;;;0.90;;
17214;SDS011;8723;51.502;6.918;2022-09-20T12:10:56;2.75;;;1.10;;
17214;SDS011;8723;51.502;6.918;2022-09-20T12:13:25;2.33;;;0.80;;
17214;SDS011;8723;51.502;6.918;2022-09-20T12:15:56;2.20;;;0.88;;
17214;SDS011;8723;51.502;6.918;2022-09-20T12:18:26;3.47;;;0.90;;
17214;SDS011;8723;51.502;6.918;2022-09-20T12:21:01;1.17;;;0.70;;
17214;SDS011;8723;51.502;6.918;2022-09-20T12:23:58;3.22;;;1.00;;
17214;SDS011;8723;51.502;6.918;2022-09-20T12:26:36;2.65;;;0.85;;
17214;SDS011;8723;51.502;6.918;2022-09-20T12:31:59;1.25;;;0.75;;
17214;SDS011;8723;51.502;6.918;2022-09-20T12:34:30;1.98;;;1.00;;
17214;SDS011;8723;51.502;6.918;2022-09-20T12:37:15;2.83;;;1.00;;
17214;SDS011;8723;51.502;6.918;2022-09-20T12:39:49;2.88;;;0.90;;
17214;SDS011;8723;51.502;6.918;2022-09-20T12:42:23;1.88;;;0.90;;
17214;SDS011;8723;51.502;6.918;2022-09-20T12:44:57;1.50;;;0.80;;
17214;SDS011;8723;51.502;6.918;2022-09-20T12:47:26;1.60;;;0.85;;
17214;SDS011;8723;51.502;6.918;2022-09-20T12:49:55;3.08;;;1.20;;
17214;SDS011;8723;51.502;6.918;2022-09-20T12:52:47;2.15;;;0.90;;
17214;SDS011;8723;51.502;6.918;2022-09-20T12:55:30;1.45;;;1.00;;
17214;SDS011;8723;51.502;6.918;2022-09-20T12:57:59;2.30;;;1.08;;
17214;SDS011;8723;51.502;6.918;2022-09-20T13:00:30;3.65;;;1.05;;
17214;SDS011;8723;51.502;6.918;2022-09-20T13:02:59;2.80;;;1.08;;
17214;SDS011;8723;51.502;6.918;2022-09-20T13:05:31;2.00;;;0.80;;
17214;SDS011;8723;51.502;6.918;2022-09-20T13:07:59;2.83;;;0.95;;
17214;SDS011;8723;51.502;6.918;2022-09-20T13:10:33;4.28;;;1.20;;
17214;SDS011;8723;51.502;6.918;2022-09-20T13:13:03;2.45;;;0.95;;
17214;SDS011;8723;51.502;6.918;2022-09-20T13:15:34;3.15;;;1.20;;
17214;SDS011;8723;51.502;6.918;2022-09-20T13:18:01;2.35;;;0.73;;
17214;SDS011;8723;51.502;6.918;2022-09-20T13:20:30;3.30;;;1.20;;
17214;SDS011;8723;51.502;6.918;2022-09-20T13:22:59;0.90;;;0.65;;
17214;SDS011;8723;51.502;6.918;2022-09-20T13:25:27;2.28;;;0.90;;
17214;SDS011;8723;51.502;6.918;2022-09-20T13:27:56;2.40;;;1.13;;
17214;SDS011;8723;51.502;6.918;2022-09-20T13:30:26;2.97;;;0.93;;
17214;SDS011;8723;51.502;6.918;2022-09-20T13:33:12;3.13;;;1.50;;
17214;SDS011;8723;51.502;6.918;2022-09-20T13:35:40;1.70;;;0.90;;
17214;SDS011;8723;51.502;6.918;2022-09-20T13:38:09;2.20;;;0.80;;
17214;SDS011;8723;51.502;6.918;2022-09-20T13:40:37;2.38;;;1.00;;
17214;SDS011;8723;51.502;6.918;2022-09-20T13:43:11;1.95;;;0.90;;
17214;SDS011;8723;51.502;6.918;2022-09-20T13:45:43;4.27;;;1.00;;
17214;SDS011;8723;51.502;6.918;2022-09-20T13:48:13;3.38;;;0.98;;
17214;SDS011;8723;51.502;6.918;2022-09-20T13:50:42;2.80;;;1.00;;
17214;SDS011;8723;51.502;6.918;2022-09-20T13:53:13;1.60;;;0.90;;
17214;SDS011;8723;51.502;6.918;2022-09-20T13:55:41;3.60;;;1.05;;
17214;SDS011;8723;51.502;6.918;2022-09-20T13:58:16;2.03;;;0.90;;
17214;SDS011;8723;51.502;6.918;2022-09-20T14:00:44;2.67;;;1.00;;
17214;SDS011;8723;51.502;6.918;2022-09-20T14:03:13;2.38;;;0.93;;
17214;SDS011;8723;51.502;6.918;2022-09-20T14:05:44;2.05;;;1.00;;
17214;SDS011;8723;51.502;6.918;2022-09-20T14:08:12;2.27;;;1.00;;
17214;SDS011;8723;51.502;6.918;2022-09-20T14:10:42;2.40;;;1.00;;
17214;SDS011;8723;51.502;6.918;2022-09-20T14:13:10;3.38;;;1.17;;
17214;SDS011;8723;51.502;6.918;2022-09-20T14:15:40;3.65;;;1.10;;
17214;SDS011;8723;51.502;6.918;2022-09-20T14:18:10;3.33;;;1.20;;
17214;SDS011;8723;51.502;6.918;2022-09-20T14:20:41;2.42;;;1.00;;
17214;SDS011;8723;51.502;6.918;2022-09-20T14:23:16;3.30;;;1.23;;
17214;SDS011;8723;51.502;6.918;2022-09-20T14:28:28;3.83;;;1.30;;
17214;SDS011;8723;51.502;6.918;2022-09-20T14:31:02;3.38;;;1.00;;
17214;SDS011;8723;51.502;6.918;2022-09-20T14:33:31;5.07;;;1.50;;
17214;SDS011;8723;51.502;6.918;2022-09-20T14:36:00;2.58;;;1.50;;
17214;SDS011;8723;51.502;6.918;2022-09-20T14:38:27;3.13;;;1.30;;
17214;SDS011;8723;51.502;6.918;2022-09-20T14:40:54;3.20;;;1.40;;
17214;SDS011;8723;51.502;6.918;2022-09-20T14:43:25;3.97;;;1.40;;
17214;SDS011;8723;51.502;6.918;2022-09-20T14:45:55;2.30;;;1.23;;
17214;SDS011;8723;51.502;6.918;2022-09-20T14:48:32;2.53;;;1.13;;
17214;SDS011;8723;51.502;6.918;2022-09-20T14:51:17;3.47;;;1.38;;
17214;SDS011;8723;51.502;6.918;2022-09-20T14:53:46;3.63;;;1.25;;
17214;SDS011;8723;51.502;6.918;2022-09-20T14:56:14;4.00;;;1.35;;
17214;SDS011;8723;51.502;6.918;2022-09-20T14:59:01;2.30;;;1.30;;
17214;SDS011;8723;51.502;6.918;2022-09-20T15:01:29;3.58;;;1.33;;
17214;SDS011;8723;51.502;6.918;2022-09-20T15:03:56;3.33;;;1.15;;
17214;SDS011;8723;51.502;6.918;2022-09-20T15:06:25;5.28;;;1.55;;
17214;SDS011;8723;51.502;6.918;2022-09-20T15:08:52;1.98;;;1.10;;
17214;SDS011;8723;51.502;6.918;2022-09-20T15:11:19;4.05;;;1.17;;
17214;SDS011;8723;51.502;6.918;2022-09-20T15:13:46;4.10;;;1.45;;
17214;SDS011;8723;51.502;6.918;2022-09-20T15:16:14;2.28;;;1.40;;
17214;SDS011;8723;51.502;6.918;2022-09-20T15:18:44;4.33;;;1.40;;
17214;SDS011;8723;51.502;6.918;2022-09-20T15:21:11;2.85;;;1.10;;
17214;SDS011;8723;51.502;6.918;2022-09-20T15:23:39;3.97;;;1.15;;
17214;SDS011;8723;51.502;6.918;2022-09-20T15:26:07;3.42;;;1.15;;
17214;SDS011;8723;51.502;6.918;2022-09-20T15:28:37;2.77;;;1.23;;
17214;SDS011;8723;51.502;6.918;2022-09-20T15:31:04;3.72;;;1.27;;
17214;SDS011;8723;51.502;6.918;2022-09-20T15:33:32;4.32;;;1.20;;
17214;SDS011;8723;51.502;6.918;2022-09-20T15:36:00;4.00;;;1.30;;
17214;SDS011;8723;51.502;6.918;2022-09-20T15:38:27;3.72;;;1.27;;
17214;SDS011;8723;51.502;6.918;2022-09-20T15:40:58;5.53;;;1.67;;
17214;SDS011;8723;51.502;6.918;2022-09-20T15:43:25;2.65;;;1.27;;
17214;SDS011;8723;51.502;6.918;2022-09-20T15:45:55;3.55;;;1.35;;
17214;SDS011;8723;51.502;6.918;2022-09-20T15:48:25;5.60;;;1.42;;
17214;SDS011;8723;51.502;6.918;2022-09-20T15:51:00;3.97;;;1.67;;
17214;SDS011;8723;51.502;6.918;2022-09-20T15:53:28;3.30;;;1.45;;
17214;SDS011;8723;51.502;6.918;2022-09-20T15:55:59;3.47;;;1.40;;
17214;SDS011;8723;51.502;6.918;2022-09-20T15:58:27;3.72;;;1.35;;
17214;SDS011;8723;51.502;6.918;2022-09-20T16:01:00;3.05;;;1.40;;
17214;SDS011;8723;51.502;6.918;2022-09-20T16:03:29;3.03;;;1.10;;
17214;SDS011;8723;51.502;6.918;2022-09-20T16:05:57;5.05;;;1.60;;
17214;SDS011;8723;51.502;6.918;2022-09-20T16:08:25;4.40;;;1.60;;
17214;SDS011;8723;51.502;6.918;2022-09-20T16:10:55;3.00;;;1.33;;